Time;durP1;ratioP1;P1;durP2;ratioP2;P2;SDS_P1;SDS_P2;PMS_P1;PMS_P2;Temp;Humidity;BMP_temperature;BMP_pressure;BME280_temperature;BME280_humidity;BME280_pressure;Samples;Min_cycle;Max_cycle;Signal;HPM_P1;HPM_P2
2022/12/10 00:01:21;;;;;;;45.42;22.40;;;-0.40;99.90;;;;;;4995352;28;93262;-75
2022/12/10 00:03:48;;;;;;;43.58;21.75;;;-0.40;99.90;;;;;;4976799;28;109733;-75
2022/12/10 00:06:18;;;;;;;40.08;21.63;;;-0.50;99.90;;;;;;4992799;28;94958;-75
2022/12/10 00:08:46;;;;;;;45.25;23.25;;;-0.50;99.90;;;;;;4993926;28;92495;-75
2022/12/10 00:11:14;;;;;;;40.42;21.15;;;-0.50;99.90;;;;;;4995215;28;93199;-75
2022/12/10 00:13:43;;;;;;;42.55;22.52;;;-0.50;99.90;;;;;;4993948;28;92532;-75
2022/12/10 00:16:12;;;;;;;45.55;22.58;;;-0.50;99.90;;;;;;4994012;28;92442;-75
2022/12/10 00:18:39;;;;;;;40.78;21.48;;;-0.50;99.90;;;;;;4994702;28;92439;-75
2022/12/10 00:21:08;;;;;;;45.05;23.00;;;-0.50;99.90;;;;;;4977319;28;95823;-75
2022/12/10 00:23:36;;;;;;;44.42;21.73;;;-0.50;99.90;;;;;;4993587;28;95876;-75
2022/12/10 00:26:09;;;;;;;46.60;23.02;;;-0.60;99.90;;;;;;4994066;28;92704;-75
2022/12/10 00:28:37;;;;;;;41.38;22.92;;;-0.50;99.90;;;;;;4995268;28;92530;-75
2022/12/10 00:31:10;;;;;;;47.92;23.55;;;-0.60;99.90;;;;;;4993743;28;98840;-75
2022/12/10 00:33:37;;;;;;;39.17;20.73;;;-0.60;99.90;;;;;;4994754;28;95459;-75
2022/12/10 00:36:07;;;;;;;40.33;20.83;;;-0.60;99.90;;;;;;4995070;28;92447;-75
2022/12/10 00:38:35;;;;;;;40.15;21.30;;;-0.60;99.90;;;;;;5010253;28;92406;-75
2022/12/10 00:41:03;;;;;;;43.85;21.05;;;-0.60;99.90;;;;;;4977153;28;95952;-75
2022/12/10 00:43:32;;;;;;;47.05;22.85;;;-0.60;99.90;;;;;;4977253;28;95472;-75
2022/12/10 00:46:00;;;;;;;43.97;22.50;;;-0.60;99.90;;;;;;4960842;28;92509;-75
2022/12/10 00:48:27;;;;;;;44.67;21.92;;;-0.60;99.90;;;;;;4994051;28;91709;-75
2022/12/10 00:51:04;;;;;;;47.85;23.05;;;-0.60;99.90;;;;;;4976991;28;95639;-75
2022/12/10 00:53:34;;;;;;;47.10;24.35;;;-0.60;99.90;;;;;;4978593;28;92697;-75
2022/12/10 00:56:03;;;;;;;44.08;22.60;;;-0.60;99.90;;;;;;4992224;28;94889;-75
2022/12/10 00:58:33;;;;;;;47.70;24.35;;;-0.60;99.90;;;;;;4992918;28;92517;-75
2022/12/10 01:01:12;;;;;;;48.30;23.92;;;-0.50;99.90;;;;;;4992775;28;93168;-75
2022/12/10 01:03:40;;;;;;;44.85;22.90;;;-0.50;99.90;;;;;;4994306;28;92524;-75
2022/12/10 01:06:31;;;;;;;49.72;24.20;;;-0.50;99.90;;;;;;4994545;28;92476;-75
2022/12/10 01:09:01;;;;;;;47.67;24.10;;;-0.40;99.90;;;;;;4994704;28;92318;-75
2022/12/10 01:11:30;;;;;;;50.22;24.10;;;-0.30;99.90;;;;;;4993197;28;94988;-75
2022/12/10 01:13:58;;;;;;;49.63;24.45;;;-0.20;99.90;;;;;;4977181;28;94630;-76
2022/12/10 01:16:26;;;;;;;50.88;23.40;;;-0.10;99.90;;;;;;4992884;28;92577;-75
2022/12/10 01:18:55;;;;;;;46.50;22.23;;;0.00;99.90;;;;;;4994492;28;93000;-75
2022/12/10 01:21:24;;;;;;;43.80;23.52;;;0.10;99.90;;;;;;4975192;28;97172;-75
2022/12/10 01:23:52;;;;;;;46.65;23.17;;;0.20;99.90;;;;;;4992640;28;98292;-75
2022/12/10 01:26:27;;;;;;;44.53;22.27;;;0.20;99.90;;;;;;4994472;28;92489;-75
2022/12/10 01:28:55;;;;;;;47.30;23.35;;;0.30;99.90;;;;;;4994560;28;93278;-75
2022/12/10 01:31:29;;;;;;;43.33;22.20;;;0.40;99.90;;;;;;4994203;28;93356;-75
2022/12/10 01:33:57;;;;;;;44.60;23.43;;;0.50;99.90;;;;;;4992571;28;96242;-75
2022/12/10 01:36:30;;;;;;;50.85;24.23;;;0.50;99.90;;;;;;4994335;28;92466;-75
2022/12/10 01:38:58;;;;;;;44.22;23.60;;;0.60;99.90;;;;;;4996645;28;91751;-75
2022/12/10 01:41:32;;;;;;;45.33;23.88;;;0.60;99.90;;;;;;4997484;28;93282;-75
2022/12/10 01:44:01;;;;;;;42.90;22.33;;;0.70;99.90;;;;;;4997444;28;93220;-76
2022/12/10 01:46:37;;;;;;;44.72;23.20;;;0.80;99.90;;;;;;4995985;28;94888;-76
2022/12/10 01:49:06;;;;;;;46.42;24.02;;;0.70;99.90;;;;;;5012987;28;92508;-76
2022/12/10 01:51:36;;;;;;;47.50;24.80;;;0.80;99.90;;;;;;4997198;28;93358;-76
2022/12/10 01:54:11;;;;;;;45.88;23.52;;;0.80;99.90;;;;;;4995810;28;100123;-76
2022/12/10 01:56:42;;;;;;;45.90;22.90;;;0.90;99.90;;;;;;4997553;28;92415;-76
2022/12/10 01:59:13;;;;;;;42.85;22.98;;;0.90;99.90;;;;;;4979484;28;92650;-76
2022/12/10 02:01:58;;;;;;;46.85;23.73;;;0.90;99.90;;;;;;4995053;28;96698;-76
2022/12/10 02:04:55;;;;;;;43.85;23.25;;;0.90;99.90;;;;;;4979526;28;95971;-76
2022/12/10 02:08:06;;;;;;;48.20;23.02;;;0.90;99.90;;;;;;4996141;28;92477;-76
2022/12/10 02:10:42;;;;;;;48.22;24.83;;;0.90;99.90;;;;;;4963084;28;92576;-76
2022/12/10 02:13:30;;;;;;;46.92;22.52;;;0.80;99.90;;;;;;4977936;28;97955;-76
2022/12/10 02:16:10;;;;;;;49.95;23.70;;;0.80;99.90;;;;;;4995245;28;97893;-76
2022/12/10 02:18:57;;;;;;;51.95;23.30;;;0.70;99.90;;;;;;4995770;28;92449;-76
2022/12/10 02:21:32;;;;;;;54.67;25.15;;;0.60;99.90;;;;;;4995631;28;92490;-76
2022/12/10 02:24:04;;;;;;;49.55;24.38;;;0.60;99.90;;;;;;4978649;28;95651;-76
2022/12/10 02:26:40;;;;;;;47.50;24.35;;;0.50;99.90;;;;;;5011986;28;95772;-76
2022/12/10 02:29:12;;;;;;;52.63;25.63;;;0.50;99.90;;;;;;4995682;28;92440;-76
2022/12/10 02:31:47;;;;;;;48.60;23.45;;;0.40;99.90;;;;;;4995932;28;91670;-75
2022/12/10 02:34:16;;;;;;;54.80;24.45;;;0.40;99.90;;;;;;4995340;28;94683;-75
2022/12/10 02:36:45;;;;;;;52.67;25.13;;;0.30;99.90;;;;;;5012108;28;95603;-75
2022/12/10 02:39:20;;;;;;;53.50;25.13;;;0.30;99.90;;;;;;4994508;28;94849;-75
2022/12/10 02:41:54;;;;;;;61.22;26.85;;;0.20;99.90;;;;;;5011821;28;93240;-75
2022/12/10 02:44:24;;;;;;;55.05;24.80;;;0.20;99.90;;;;;;4995194;28;96225;-75
2022/12/10 02:46:54;;;;;;;57.47;26.48;;;0.20;99.90;;;;;;5011176;28;95571;-76
2022/12/10 02:49:27;;;;;;;59.20;25.50;;;0.10;99.90;;;;;;4994586;28;92594;-76
2022/12/10 02:51:59;;;;;;;54.20;25.35;;;0.00;99.90;;;;;;4995280;28;92454;-76
2022/12/10 02:54:37;;;;;;;58.22;26.33;;;0.00;99.90;;;;;;5011577;28;94931;-76
2022/12/10 02:57:10;;;;;;;62.13;26.88;;;0.00;99.90;;;;;;4978647;28;95555;-76
2022/12/10 02:59:57;;;;;;;57.70;26.17;;;0.00;99.90;;;;;;4996601;28;92460;-76
2022/12/10 03:02:32;;;;;;;57.35;25.50;;;-0.10;99.90;;;;;;4995933;28;92475;-76
2022/12/10 03:05:11;;;;;;;58.20;26.75;;;-0.10;99.90;;;;;;4993515;28;94852;-75
2022/12/10 03:07:44;;;;;;;55.58;24.90;;;-0.10;99.90;;;;;;4995247;28;95585;-76
2022/12/10 03:10:26;;;;;;;52.50;25.42;;;-0.20;99.90;;;;;;4994851;28;92466;-76
2022/12/10 03:13:08;;;;;;;57.80;25.45;;;-0.20;99.90;;;;;;4996526;28;92697;-76
2022/12/10 03:15:39;;;;;;;58.13;25.08;;;-0.20;99.90;;;;;;4994705;28;96062;-76
2022/12/10 03:18:08;;;;;;;60.70;25.95;;;-0.30;99.90;;;;;;4994528;28;93117;-76
2022/12/10 03:20:39;;;;;;;62.85;28.20;;;-0.30;99.90;;;;;;4994963;28;92437;-76
2022/12/10 03:23:11;;;;;;;65.82;29.40;;;-0.30;99.90;;;;;;4995279;28;92267;-76
2022/12/10 03:25:38;;;;;;;64.20;28.10;;;-0.30;99.90;;;;;;4995912;28;93254;-76
2022/12/10 03:28:07;;;;;;;59.28;25.88;;;-0.30;99.90;;;;;;4977959;28;93171;-76
2022/12/10 03:30:37;;;;;;;60.65;27.88;;;-0.30;99.90;;;;;;4994681;28;94749;-76
2022/12/10 03:33:04;;;;;;;58.28;25.95;;;-0.30;99.90;;;;;;4995575;28;92452;-76
2022/12/10 03:35:32;;;;;;;63.72;27.95;;;-0.30;99.90;;;;;;4994568;28;93086;-76
2022/12/10 03:37:59;;;;;;;63.70;27.40;;;-0.30;99.90;;;;;;4994021;28;95573;-76
2022/12/10 03:40:26;;;;;;;61.15;26.60;;;-0.30;99.90;;;;;;4978235;28;92535;-76
2022/12/10 03:42:53;;;;;;;66.55;28.95;;;-0.30;99.90;;;;;;4994535;28;92478;-76
2022/12/10 03:45:20;;;;;;;63.90;28.05;;;-0.30;99.90;;;;;;4977471;28;96542;-76
2022/12/10 03:47:49;;;;;;;66.45;28.23;;;-0.30;99.90;;;;;;4994629;28;95809;-76
2022/12/10 03:50:16;;;;;;;63.38;28.08;;;-0.30;99.90;;;;;;4993653;28;103061;-76
2022/12/10 03:52:43;;;;;;;62.88;29.13;;;-0.40;99.90;;;;;;4994529;28;92520;-76
2022/12/10 03:55:10;;;;;;;57.92;25.80;;;-0.40;99.90;;;;;;4993948;28;95717;-76
2022/12/10 03:57:37;;;;;;;65.78;29.90;;;-0.40;99.90;;;;;;4994198;28;96569;-76
2022/12/10 04:00:06;;;;;;;64.43;29.30;;;-0.40;99.90;;;;;;4993760;28;92460;-76
2022/12/10 04:02:38;;;;;;;70.60;28.55;;;-0.40;99.90;;;;;;4994566;28;92583;-76
2022/12/10 04:05:06;;;;;;;61.50;28.15;;;-0.40;99.90;;;;;;4995068;28;93847;-76
2022/12/10 04:07:34;;;;;;;62.22;26.95;;;-0.40;99.90;;;;;;5010546;28;93122;-76
2022/12/10 04:10:02;;;;;;;67.20;29.00;;;-0.40;99.90;;;;;;4994251;28;92874;-76
2022/12/10 04:12:29;;;;;;;65.43;29.63;;;-0.40;99.90;;;;;;4995729;28;92215;-76
2022/12/10 04:17:41;;;;;;;64.60;28.92;;;-0.40;99.90;;;;;;4995371;28;93020;-76
2022/12/10 04:26:51;;;;;;;68.05;29.15;;;-0.40;99.90;;;;;;4992781;28;95560;-76
2022/12/10 04:28:26;;;;;;;59.00;26.98;;;-0.50;99.90;;;;;;4995125;28;93235;-76
2022/12/10 04:30:53;;;;;;;63.83;28.48;;;-0.50;99.90;;;;;;4994163;28;92426;-76
2022/12/10 04:33:20;;;;;;;58.78;26.65;;;-0.50;99.90;;;;;;4993268;28;93126;-76
2022/12/10 04:35:47;;;;;;;65.90;29.13;;;-0.50;99.90;;;;;;4993650;28;93471;-76
2022/12/10 04:38:14;;;;;;;54.45;25.70;;;-0.50;99.90;;;;;;4995156;28;93554;-76
2022/12/10 04:40:41;;;;;;;67.40;30.05;;;-0.50;99.90;;;;;;4995220;28;92431;-76
2022/12/10 04:43:08;;;;;;;65.00;28.55;;;-0.50;99.90;;;;;;4993544;28;95524;-76
2022/12/10 04:45:35;;;;;;;63.60;27.70;;;-0.40;99.90;;;;;;4993743;28;95682;-76
2022/12/10 04:48:02;;;;;;;58.13;27.40;;;-0.40;99.90;;;;;;4977242;28;94341;-76
2022/12/10 04:50:29;;;;;;;76.25;31.40;;;-0.40;99.90;;;;;;4994796;28;92433;-76
2022/12/10 04:52:56;;;;;;;63.45;28.75;;;-0.40;99.90;;;;;;5010282;28;92477;-76
2022/12/10 04:55:23;;;;;;;69.85;30.95;;;-0.40;99.90;;;;;;4993081;28;95875;-76
2022/12/10 04:57:50;;;;;;;68.70;31.92;;;-0.30;99.90;;;;;;4994710;28;92434;-76
2022/12/10 05:00:17;;;;;;;72.97;30.40;;;-0.30;99.90;;;;;;4994541;28;92433;-76
2022/12/10 05:02:44;;;;;;;67.70;30.80;;;-0.30;99.90;;;;;;4994846;28;91684;-76
2022/12/10 05:05:12;;;;;;;70.25;31.48;;;-0.30;99.90;;;;;;4994330;28;93364;-76
2022/12/10 05:07:39;;;;;;;79.07;32.13;;;-0.30;99.90;;;;;;4994713;28;93087;-76
2022/12/10 05:10:06;;;;;;;72.22;31.27;;;-0.40;99.90;;;;;;4993353;28;94756;-76
2022/12/10 05:12:33;;;;;;;64.78;30.60;;;-0.40;99.90;;;;;;4998027;28;92426;-76
2022/12/10 05:15:00;;;;;;;73.50;30.95;;;-0.40;99.90;;;;;;4997759;28;93216;-76
2022/12/10 05:17:27;;;;;;;68.47;31.45;;;-0.40;99.90;;;;;;4997737;28;93134;-76
2022/12/10 05:19:55;;;;;;;67.65;30.88;;;-0.40;99.90;;;;;;4996663;28;92538;-76
2022/12/10 05:25:07;;;;;;;76.95;32.58;;;-0.50;99.90;;;;;;4997898;28;92549;-76
2022/12/10 05:27:34;;;;;;;77.47;31.88;;;-0.60;99.90;;;;;;4998022;28;93799;-76
2022/12/10 05:30:01;;;;;;;74.40;32.83;;;-0.60;99.90;;;;;;4996510;28;92481;-76
2022/12/10 05:32:28;;;;;;;73.10;32.67;;;-0.60;99.90;;;;;;4997639;28;92412;-76
2022/12/10 05:34:55;;;;;;;78.63;31.50;;;-0.60;99.90;;;;;;4994941;28;98858;-76
2022/12/10 05:37:22;;;;;;;69.82;30.20;;;-0.60;99.90;;;;;;4997373;28;95587;-76
2022/12/10 05:39:49;;;;;;;72.05;31.10;;;-0.70;99.90;;;;;;4980191;28;92456;-76
2022/12/10 05:42:16;;;;;;;75.07;31.83;;;-0.70;99.90;;;;;;4996156;28;92563;-76
2022/12/10 05:44:43;;;;;;;75.20;33.63;;;-0.70;99.90;;;;;;4997507;28;93131;-76
2022/12/10 05:47:09;;;;;;;64.03;28.23;;;-0.70;99.90;;;;;;4979768;28;93221;-76
2022/12/10 05:49:37;;;;;;;78.07;32.55;;;-0.80;99.90;;;;;;4997647;28;93325;-76
2022/12/10 05:52:04;;;;;;;83.93;33.80;;;-0.80;99.90;;;;;;4980256;28;91803;-76
2022/12/10 05:54:31;;;;;;;74.68;33.13;;;-0.80;99.90;;;;;;5012548;28;93171;-76
2022/12/10 05:56:57;;;;;;;76.82;32.08;;;-0.80;99.90;;;;;;4996240;28;92968;-76
2022/12/10 05:59:24;;;;;;;81.10;32.15;;;-0.90;99.90;;;;;;4978293;28;95216;-76
2022/12/10 06:01:51;;;;;;;75.13;31.40;;;-0.90;99.90;;;;;;4995805;28;92455;-76
2022/12/10 06:04:18;;;;;;;75.55;31.83;;;-0.90;99.90;;;;;;4995529;28;95840;-76
2022/12/10 06:06:47;;;;;;;68.03;31.10;;;-0.90;99.90;;;;;;4996002;28;92970;-76
2022/12/10 06:09:14;;;;;;;77.68;32.47;;;-0.90;99.90;;;;;;4997121;28;92401;-76
2022/12/10 06:11:41;;;;;;;76.22;33.63;;;-0.90;99.90;;;;;;4995763;28;92497;-76
2022/12/10 06:14:09;;;;;;;74.97;31.67;;;-0.90;99.90;;;;;;4997096;28;93224;-76
2022/12/10 06:16:36;;;;;;;81.07;34.85;;;-0.90;99.90;;;;;;4995780;28;94591;-76
2022/12/10 06:19:03;;;;;;;86.13;32.47;;;-1.00;99.90;;;;;;4997146;28;92365;-76
2022/12/10 06:21:30;;;;;;;74.20;30.77;;;-1.00;99.90;;;;;;4996860;28;92430;-76
2022/12/10 06:23:57;;;;;;;75.53;31.80;;;-1.00;99.90;;;;;;4995645;28;96184;-76
2022/12/10 06:26:25;;;;;;;86.22;34.60;;;-1.00;99.90;;;;;;4996583;28;95501;-76
2022/12/10 06:28:53;;;;;;;77.72;32.60;;;-1.00;99.90;;;;;;4996856;28;92469;-76
2022/12/10 06:31:21;;;;;;;81.40;33.30;;;-1.00;99.90;;;;;;4996635;28;92468;-76
2022/12/10 06:33:49;;;;;;;80.13;32.22;;;-1.00;99.90;;;;;;5012152;28;95734;-76
2022/12/10 06:36:18;;;;;;;88.63;33.65;;;-1.00;99.90;;;;;;4995411;28;103712;-76
2022/12/10 06:38:45;;;;;;;85.78;33.25;;;-1.10;99.90;;;;;;4996812;28;92359;-76
2022/12/10 06:41:14;;;;;;;78.72;32.85;;;-1.10;99.90;;;;;;5012633;28;92179;-76
2022/12/10 06:43:41;;;;;;;80.85;33.10;;;-1.00;99.90;;;;;;4995177;28;93155;-76
2022/12/10 06:46:12;;;;;;;86.78;35.25;;;-1.00;99.90;;;;;;4996593;28;93404;-76
2022/12/10 06:48:40;;;;;;;81.70;33.88;;;-1.00;99.90;;;;;;4995560;28;95081;-76
2022/12/10 06:51:08;;;;;;;86.07;33.65;;;-0.90;99.90;;;;;;5011578;28;92530;-76
2022/12/10 06:53:36;;;;;;;85.53;32.63;;;-0.80;99.90;;;;;;4978281;28;95881;-76
2022/12/10 06:56:04;;;;;;;61.10;26.88;;;-0.80;99.90;;;;;;4996301;28;92615;-76
2022/12/10 06:58:35;;;;;;;86.32;34.92;;;-0.70;99.90;;;;;;4995031;28;92595;-76
2022/12/10 07:01:07;;;;;;;76.15;31.17;;;-0.60;99.90;;;;;;4996254;28;92334;-76
2022/12/10 07:03:34;;;;;;;80.30;33.38;;;-0.50;99.90;;;;;;4996181;28;93036;-76
2022/12/10 07:06:02;;;;;;;75.28;33.15;;;-0.40;99.90;;;;;;4996514;28;93812;-76
2022/12/10 07:08:29;;;;;;;73.00;31.02;;;-0.40;99.90;;;;;;5011315;28;92486;-76
2022/12/10 07:10:56;;;;;;;84.05;32.40;;;-0.30;99.90;;;;;;5011606;28;92479;-75
2022/12/10 07:13:24;;;;;;;73.07;32.75;;;-0.30;99.90;;;;;;5009809;28;98255;-76
2022/12/10 07:15:56;;;;;;;77.05;33.67;;;-0.20;99.90;;;;;;4995994;28;95540;-76
2022/12/10 07:18:24;;;;;;;74.28;32.40;;;-0.10;99.90;;;;;;4996536;28;92875;-76
2022/12/10 07:20:51;;;;;;;74.05;33.47;;;-0.10;99.90;;;;;;4994683;28;92515;-76
2022/12/10 07:23:18;;;;;;;72.15;31.08;;;-0.10;99.90;;;;;;4996049;28;93239;-76
2022/12/10 07:25:45;;;;;;;70.60;30.77;;;-0.10;99.90;;;;;;4977986;28;93073;-76
2022/12/10 07:28:12;;;;;;;77.30;33.70;;;-0.20;99.90;;;;;;4994655;28;92920;-76
2022/12/10 07:30:39;;;;;;;69.18;28.88;;;-0.20;99.90;;;;;;4994663;28;91600;-76
2022/12/10 07:33:06;;;;;;;77.25;32.55;;;-0.20;99.90;;;;;;5010993;28;93331;-75
2022/12/10 07:35:33;;;;;;;77.07;31.95;;;-0.30;99.90;;;;;;4993782;28;95788;-75
2022/12/10 07:38:00;;;;;;;58.28;25.77;;;-0.30;99.90;;;;;;4994825;28;95436;-76
2022/12/10 07:40:27;;;;;;;73.28;32.55;;;-0.30;99.90;;;;;;4994757;28;93381;-76
2022/12/10 07:42:53;;;;;;;69.65;29.83;;;-0.40;99.90;;;;;;4994121;28;95825;-76
2022/12/10 07:45:20;;;;;;;75.63;31.20;;;-0.40;99.90;;;;;;4977693;28;93518;-76
2022/12/10 07:47:47;;;;;;;75.47;31.20;;;-0.40;99.90;;;;;;4995514;28;92455;-76
2022/12/10 07:50:14;;;;;;;77.78;33.83;;;-0.40;99.90;;;;;;4994299;28;92581;-76
2022/12/10 07:52:41;;;;;;;76.50;33.30;;;-0.40;99.90;;;;;;4993928;28;94997;-76
2022/12/10 07:55:08;;;;;;;82.28;33.28;;;-0.40;99.90;;;;;;4978026;28;96133;-76
2022/12/10 07:57:35;;;;;;;75.88;31.67;;;-0.40;99.90;;;;;;4993736;28;97244;-76
2022/12/10 08:00:03;;;;;;;73.88;32.53;;;-0.40;99.90;;;;;;4977487;28;92459;-76
2022/12/10 08:02:37;;;;;;;66.13;28.10;;;-0.40;99.90;;;;;;4992828;28;95315;-76
2022/12/10 08:05:05;;;;;;;73.80;32.22;;;-0.40;99.90;;;;;;4995201;28;95475;-76
2022/12/10 08:07:33;;;;;;;70.00;31.98;;;-0.40;99.90;;;;;;4977408;28;92522;-76
2022/12/10 08:09:59;;;;;;;73.22;32.67;;;-0.40;99.90;;;;;;4994248;28;92954;-76
2022/12/10 08:12:26;;;;;;;75.93;32.17;;;-0.30;99.90;;;;;;4995220;28;93356;-76
2022/12/10 08:14:53;;;;;;;77.35;32.97;;;-0.30;99.90;;;;;;4993579;28;95692;-76
2022/12/10 08:17:20;;;;;;;79.18;32.10;;;-0.30;99.90;;;;;;4994142;28;92537;-76
2022/12/10 08:19:47;;;;;;;78.57;33.83;;;-0.30;99.90;;;;;;4995461;28;91712;-76
2022/12/10 08:22:14;;;;;;;67.45;29.60;;;-0.30;99.90;;;;;;4977361;28;95842;-76
2022/12/10 08:24:41;;;;;;;73.15;33.20;;;-0.20;99.90;;;;;;4993287;28;95489;-76
2022/12/10 08:27:08;;;;;;;78.20;34.60;;;-0.30;99.90;;;;;;4993869;28;94843;-76
2022/12/10 08:29:35;;;;;;;78.95;31.35;;;-0.20;99.90;;;;;;4993435;28;92468;-76
2022/12/10 08:32:02;;;;;;;74.00;31.92;;;-0.20;99.90;;;;;;4977181;28;96168;-76
2022/12/10 08:34:29;;;;;;;75.53;32.17;;;-0.20;99.90;;;;;;4993095;28;106236;-76
2022/12/10 08:36:56;;;;;;;71.28;31.40;;;-0.10;99.90;;;;;;4994936;28;92346;-76
2022/12/10 08:39:23;;;;;;;67.78;29.40;;;0.00;99.90;;;;;;4977183;28;92661;-76
2022/12/10 08:41:50;;;;;;;69.15;32.53;;;0.10;99.90;;;;;;4994500;28;93322;-76
2022/12/10 08:44:17;;;;;;;66.38;30.15;;;0.20;99.90;;;;;;4994081;28;93166;-76
2022/12/10 08:46:44;;;;;;;67.95;29.48;;;0.20;99.90;;;;;;4996527;28;92397;-76
2022/12/10 08:49:11;;;;;;;72.47;31.15;;;0.30;99.90;;;;;;4997343;28;92436;-76
2022/12/10 08:51:39;;;;;;;60.40;28.98;;;0.40;99.90;;;;;;4997214;28;95700;-76
2022/12/10 08:54:06;;;;;;;68.78;32.10;;;0.40;99.90;;;;;;4997998;28;95519;-76
2022/12/10 08:56:32;;;;;;;71.03;30.70;;;0.40;99.90;;;;;;4996914;28;92462;-76
2022/12/10 08:59:00;;;;;;;69.47;30.88;;;0.40;99.90;;;;;;4997919;28;96708;-76
2022/12/10 09:01:27;;;;;;;59.22;27.17;;;0.50;99.90;;;;;;4979747;28;95764;-76
2022/12/10 09:03:54;;;;;;;73.72;32.00;;;0.50;99.90;;;;;;4997949;28;93035;-76
2022/12/10 09:06:24;;;;;;;70.82;31.13;;;0.60;99.90;;;;;;4980234;28;92595;-76
2022/12/10 09:08:51;;;;;;;72.20;31.17;;;0.60;99.90;;;;;;4998317;28;91726;-76
2022/12/10 09:11:25;;;;;;;69.97;31.35;;;0.70;99.90;;;;;;4996833;28;92988;-76
2022/12/10 09:13:52;;;;;;;72.05;32.53;;;0.70;99.90;;;;;;4980039;28;94947;-76
2022/12/10 09:16:21;;;;;;;63.17;30.30;;;0.80;99.90;;;;;;4996733;28;94877;-76
2022/12/10 09:18:48;;;;;;;70.78;33.17;;;0.80;99.90;;;;;;4997915;28;92490;-76
2022/12/10 09:21:16;;;;;;;68.40;31.63;;;0.80;99.90;;;;;;4996495;28;92913;-76
2022/12/10 09:23:44;;;;;;;68.18;29.67;;;0.80;99.90;;;;;;4997589;28;92953;-76
2022/12/10 09:26:14;;;;;;;75.65;32.15;;;0.80;99.90;;;;;;4997884;28;92464;-76
2022/12/10 09:28:42;;;;;;;66.75;31.45;;;0.80;99.90;;;;;;4996552;28;92505;-76
2022/12/10 09:31:10;;;;;;;69.00;31.88;;;0.80;99.90;;;;;;4979869;28;95879;-76
2022/12/10 09:33:41;;;;;;;60.10;27.85;;;0.70;99.90;;;;;;4998114;28;92887;-76
2022/12/10 09:36:10;;;;;;;64.57;30.23;;;0.80;99.90;;;;;;4996227;28;92451;-76
2022/12/10 09:38:39;;;;;;;64.40;29.33;;;0.80;99.90;;;;;;4996598;28;92987;-76
2022/12/10 09:41:34;;;;;;;65.40;31.25;;;0.80;99.90;;;;;;4994839;28;95624;-76
2022/12/10 09:44:25;;;;;;;66.78;30.55;;;0.90;99.90;;;;;;4996117;28;95550;-75
2022/12/10 09:46:58;;;;;;;69.28;30.55;;;0.90;99.90;;;;;;4979423;28;92618;-76
2022/12/10 09:49:44;;;;;;;73.05;32.50;;;0.90;99.90;;;;;;4996501;28;92788;-76
2022/12/10 09:52:18;;;;;;;61.90;30.42;;;1.00;99.90;;;;;;4997644;28;93449;-76
2022/12/10 09:54:48;;;;;;;;;;;1.00;99.90;;;;;;4997590;28;92918;-76
2022/12/10 09:57:30;;;;;;;65.88;29.90;;;0.90;99.90;;;;;;4998716;28;92381;-76
2022/12/10 10:00:03;;;;;;;68.95;33.28;;;1.00;99.90;;;;;;5012899;28;91840;-76
2022/12/10 10:02:37;;;;;;;71.40;31.35;;;1.10;99.90;;;;;;4996408;28;92411;-76
2022/12/10 10:05:07;;;;;;;62.70;29.73;;;1.20;99.90;;;;;;4996884;28;93814;-75
2022/12/10 10:07:39;;;;;;;69.35;31.38;;;1.30;99.90;;;;;;4995903;28;94811;-75
2022/12/10 10:10:24;;;;;;;66.47;32.88;;;1.40;99.90;;;;;;4997184;28;92951;-75
2022/12/10 10:12:58;;;;;;;61.78;30.70;;;1.60;99.90;;;;;;5012363;28;92488;-75
2022/12/10 10:15:31;;;;;;;64.60;30.25;;;1.70;99.90;;;;;;4996972;28;93081;-75
2022/12/10 10:18:21;;;;;;;60.53;28.48;;;1.90;99.90;;;;;;4997156;28;92827;-75
2022/12/10 10:20:49;;;;;;;61.20;31.20;;;2.00;99.90;;;;;;4995922;28;93352;-75
2022/12/10 10:23:16;;;;;;;63.17;31.05;;;2.20;99.90;;;;;;4995620;28;93434;-75
2022/12/10 10:25:44;;;;;;;58.92;30.30;;;2.30;99.90;;;;;;4996003;28;93164;-75
2022/12/10 10:28:16;;;;;;;65.72;31.88;;;2.50;99.90;;;;;;5011972;28;92577;-75
2022/12/10 10:30:44;;;;;;;60.90;30.23;;;2.60;99.90;;;;;;4997073;28;93076;-75
2022/12/10 10:33:13;;;;;;;60.28;28.88;;;2.70;99.90;;;;;;4977106;28;109749;-75
2022/12/10 10:35:48;;;;;;;52.65;27.63;;;2.80;99.90;;;;;;5011848;28;95398;-75
2022/12/10 10:38:20;;;;;;;58.70;31.52;;;2.90;99.90;;;;;;4995163;28;92927;-75
2022/12/10 10:40:56;;;;;;;59.85;29.77;;;3.00;99.90;;;;;;4997013;28;92529;-75
2022/12/10 10:43:32;;;;;;;62.63;30.35;;;3.00;99.90;;;;;;5011813;28;95742;-75
2022/12/10 10:46:06;;;;;;;56.78;29.88;;;3.10;99.90;;;;;;4996420;28;93016;-75
2022/12/10 10:48:33;;;;;;;64.90;31.73;;;3.20;99.90;;;;;;4996730;28;92443;-75
2022/12/10 10:51:22;;;;;;;58.47;29.23;;;3.20;99.90;;;;;;4996600;28;91659;-75
2022/12/10 10:53:52;;;;;;;58.15;28.98;;;3.30;99.90;;;;;;4995364;28;93448;-75
2022/12/10 10:56:29;;;;;;;59.30;28.73;;;3.30;99.90;;;;;;4996030;28;93002;-76
2022/12/10 10:59:06;;;;;;;53.88;29.02;;;3.40;99.90;;;;;;4995579;28;95272;-76
2022/12/10 11:01:54;;;;;;;59.25;29.73;;;3.50;99.90;;;;;;4994766;28;92546;-75
2022/12/10 11:04:28;;;;;;;59.08;29.77;;;3.50;99.90;;;;;;5011379;28;95877;-75
2022/12/10 11:06:59;;;;;;;62.42;31.70;;;3.50;99.90;;;;;;4996382;28;93130;-75
2022/12/10 11:09:32;;;;;;;56.88;27.25;;;3.60;99.90;;;;;;4995535;28;92432;-77
2022/12/10 11:12:02;;;;;;;55.92;30.15;;;3.60;99.90;;;;;;4994641;28;92571;-76
2022/12/10 11:14:38;;;;;;;56.42;29.83;;;3.60;99.90;;;;;;4995981;28;93315;-75
2022/12/10 11:17:09;;;;;;;57.13;30.00;;;3.70;99.90;;;;;;4995044;28;93177;-75
2022/12/10 11:19:42;;;;;;;60.55;31.77;;;3.70;99.90;;;;;;4994822;28;92467;-75
2022/12/10 11:22:33;;;;;;;53.35;30.20;;;3.80;99.90;;;;;;4994474;28;92540;-75
2022/12/10 11:25:01;;;;;;;51.50;28.27;;;3.80;99.90;;;;;;4994766;28;95765;-75
2022/12/10 11:27:40;;;;;;;60.95;30.98;;;3.80;99.90;;;;;;4994522;28;95546;-75
2022/12/10 11:30:22;;;;;;;58.03;29.58;;;3.80;99.90;;;;;;4994589;28;92422;-75
2022/12/10 11:33:34;;;;;;;65.57;32.63;;;3.90;99.90;;;;;;4978467;28;92517;-75
2022/12/10 11:36:47;;;;;;;60.53;32.13;;;3.90;99.90;;;;;;4995704;28;93302;-75
2022/12/10 11:39:35;;;;;;;62.67;31.10;;;3.90;99.90;;;;;;4982651;28;93450;-75
2022/12/10 11:42:28;;;;;;;59.72;30.48;;;3.90;99.90;;;;;;4995904;28;92450;-75
2022/12/10 11:45:06;;;;;;;61.33;31.77;;;3.90;99.90;;;;;;4994828;28;92347;-75
2022/12/10 11:47:43;;;;;;;60.55;30.58;;;3.90;99.90;;;;;;4994490;28;93370;-75
2022/12/10 11:50:34;;;;;;;58.10;30.83;;;4.10;99.90;;;;;;4994215;28;93239;-75
2022/12/10 11:53:18;;;;;;;59.25;30.13;;;4.30;99.90;;;;;;4993356;28;94922;-75
2022/12/10 11:56:11;;;;;;;;;;;4.40;99.90;;;;;;4996019;28;92469;-75
2022/12/10 11:58:57;;;;;;;57.55;30.50;;;4.40;99.90;;;;;;4995429;28;93886;-77
2022/12/10 12:02:03;;;;;;;58.22;30.70;;;4.50;99.90;;;;;;4993623;28;93075;-75
2022/12/10 12:04:47;;;;;;;58.47;29.00;;;4.50;99.90;;;;;;4964408;28;92628;-76
2022/12/10 12:07:35;;;;;;;58.20;30.90;;;4.50;99.90;;;;;;4977437;28;92712;-75
2022/12/10 12:10:24;;;;;;;55.40;29.80;;;4.50;99.90;;;;;;4995528;28;93456;-75
2022/12/10 12:12:59;;;;;;;55.70;29.83;;;4.50;99.90;;;;;;4994246;28;94867;-75
2022/12/10 12:15:31;;;;;;;58.25;29.83;;;4.40;99.90;;;;;;4977333;28;92388;-75
2022/12/10 12:18:06;;;;;;;58.05;30.85;;;4.40;99.90;;;;;;4995542;28;92442;-75
2022/12/10 12:20:45;;;;;;;60.70;32.40;;;4.40;99.90;;;;;;4993702;28;95760;-75
2022/12/10 12:23:22;;;;;;;64.78;32.17;;;4.40;99.90;;;;;;4995031;28;96882;-76
2022/12/10 12:25:54;;;;;;;58.67;29.85;;;4.30;99.90;;;;;;4995412;28;92405;-76
2022/12/10 12:28:36;;;;;;;59.90;30.55;;;4.30;99.90;;;;;;4993624;28;93022;-76
2022/12/10 12:31:16;;;;;;;61.13;31.02;;;4.30;99.90;;;;;;4995050;28;93339;-75
2022/12/10 12:33:46;;;;;;;64.72;31.52;;;4.30;99.90;;;;;;4995058;28;93075;-75
2022/12/10 12:36:19;;;;;;;62.45;31.58;;;4.20;99.90;;;;;;4994846;28;92453;-75
2022/12/10 12:39:02;;;;;;;65.53;33.10;;;4.20;99.90;;;;;;4995441;28;91717;-74
2022/12/10 12:41:47;;;;;;;65.70;31.88;;;4.10;99.90;;;;;;4993197;28;93317;-74
2022/12/10 12:44:22;;;;;;;58.88;29.95;;;4.10;99.90;;;;;;4995009;28;92879;-73
2022/12/10 12:46:49;;;;;;;63.08;31.20;;;4.00;99.90;;;;;;5008964;28;94882;-74
2022/12/10 12:49:25;;;;;;;63.03;29.25;;;3.90;99.90;;;;;;4994622;28;92454;-73
2022/12/10 12:52:13;;;;;;;60.10;28.48;;;3.90;99.90;;;;;;4994712;28;93264;-73
2022/12/10 12:54:41;;;;;;;57.45;27.33;;;3.90;99.90;;;;;;4994716;28;92979;-74
2022/12/10 12:57:22;;;;;;;52.47;27.88;;;3.80;99.90;;;;;;4994907;28;92871;-73
2022/12/10 13:00:03;;;;;;;53.72;27.67;;;3.80;99.90;;;;;;4993658;28;92974;-74
2022/12/10 13:02:38;;;;;;;52.00;26.38;;;3.80;99.90;;;;;;4994048;28;93282;-73
2022/12/10 13:05:14;;;;;;;51.50;25.85;;;3.70;99.90;;;;;;4993999;28;93106;-74
2022/12/10 13:07:41;;;;;;;56.53;28.73;;;3.70;99.90;;;;;;4994849;28;92991;-73